createdAt,value
2023-03-26T00:01:21.358Z,97744.69
2023-03-26T00:03:53.964Z,97742.09
2023-03-26T00:06:26.423Z,97738.44
2023-03-26T00:08:57.442Z,97743.13
2023-03-26T00:11:25.885Z,97738.81
2023-03-26T00:13:56.893Z,97733.41
2023-03-26T00:16:26.631Z,97737.56
2023-03-26T00:18:53.551Z,97736.78
2023-03-26T00:21:29.350Z,97729.88
2023-03-26T00:24:11.803Z,97737.69
2023-03-26T00:26:38.903Z,97726.56
2023-03-26T00:29:06.909Z,97728.88
2023-03-26T00:31:38.021Z,97724.47
2023-03-26T00:34:05.847Z,97727.06
2023-03-26T00:36:35.790Z,97722.94
2023-03-26T00:39:05.539Z,97723.56
2023-03-26T00:41:32.255Z,97725.50
2023-03-26T00:44:00.468Z,97715.31
2023-03-26T00:46:29.849Z,97714.81
2023-03-26T00:49:00.146Z,97716.69
2023-03-26T00:51:28.262Z,97714.88
2023-03-26T00:53:58.499Z,97708.88
2023-03-26T00:56:25.511Z,97715.03
2023-03-26T00:58:52.065Z,97708.09
2023-03-26T01:01:27.505Z,97702.28
2023-03-26T01:04:08.210Z,97694.59
2023-03-26T01:06:39.044Z,97698.03
2023-03-26T01:09:19.583Z,97683.56
2023-03-26T01:11:47.579Z,97700.88
2023-03-26T01:14:21.312Z,97700.25
2023-03-26T01:16:55.896Z,97703.22
2023-03-26T01:19:51.978Z,97697.03
2023-03-26T01:22:24.593Z,97707.44
2023-03-26T01:24:56.306Z,97703.44
2023-03-26T01:27:42.924Z,97710.25
2023-03-26T01:30:51.950Z,97709.75
2023-03-26T01:33:34.069Z,97714.94
2023-03-26T01:36:26.033Z,97707.47
2023-03-26T01:39:28.240Z,97702.31
2023-03-26T01:42:02.378Z,97700.50
2023-03-26T01:44:59.590Z,97697.28
2023-03-26T01:47:26.956Z,97699.16
2023-03-26T01:49:53.488Z,97698.28
2023-03-26T01:52:25.332Z,97696.69
2023-03-26T01:54:56.105Z,97697.66
2023-03-26T01:57:47.500Z,97698.06
2023-03-26T02:00:29.042Z,97692.88
2023-03-26T02:03:08.848Z,97700.03
2023-03-26T02:05:56.718Z,97705.25
2023-03-26T02:08:35.586Z,97699.13
2023-03-26T02:11:11.442Z,97696.22
2023-03-26T02:13:44.741Z,97698.88
2023-03-26T02:16:16.386Z,97681.69
2023-03-26T02:18:45.078Z,97677.31
2023-03-26T02:21:20.422Z,97664.91
2023-03-26T02:23:57.669Z,97674.25
2023-03-26T02:26:27.478Z,97668.06
2023-03-26T02:28:53.974Z,97677.56
2023-03-26T02:31:21.913Z,97674.31
2023-03-26T02:33:52.144Z,97677.25
2023-03-26T02:36:24.447Z,97673.88
2023-03-26T02:38:51.810Z,97670.66
2023-03-26T02:41:18.606Z,97675.81
2023-03-26T02:43:45.323Z,97664.69
2023-03-26T02:46:11.978Z,97672.72
2023-03-26T02:48:38.745Z,97677.03
2023-03-26T02:51:06.789Z,97666.97
2023-03-26T02:53:33.664Z,97669.69
2023-03-26T02:56:00.970Z,97679.34
2023-03-26T02:58:30.167Z,97677.19
2023-03-26T03:00:57.077Z,97676.47
2023-03-26T03:03:27.395Z,97673.31
2023-03-26T03:05:55.389Z,97678.78
2023-03-26T03:08:24.276Z,97683.09
2023-03-26T03:10:58.496Z,97678.78
2023-03-26T03:13:25.413Z,97675.56
2023-03-26T03:15:52.596Z,97681.66
2023-03-26T03:18:19.326Z,97679.31
2023-03-26T03:20:46.913Z,97673.63
2023-03-26T03:23:14.816Z,97684.06
2023-03-26T03:25:41.472Z,97686.81
2023-03-26T03:28:08.523Z,97689.69
2023-03-26T03:30:35.885Z,97690.63
2023-03-26T03:33:03.165Z,97684.72
2023-03-26T03:35:30.306Z,97691.53
2023-03-26T03:37:58.356Z,97685.78
2023-03-26T03:40:24.882Z,97686.66
2023-03-26T03:42:51.680Z,97684.97
2023-03-26T03:45:18.504Z,97670.69
2023-03-26T03:47:45.155Z,97674.25
2023-03-26T03:50:11.930Z,97678.66
2023-03-26T03:52:38.450Z,97678.00
2023-03-26T03:55:05.448Z,97678.22
2023-03-26T03:57:34.744Z,97686.56
2023-03-26T04:00:05.114Z,97684.56
2023-03-26T04:02:35.060Z,97688.88
2023-03-26T04:05:02.854Z,97685.56
2023-03-26T04:07:32.170Z,97686.47
2023-03-26T04:10:00.247Z,97695.19
2023-03-26T04:12:28.509Z,97691.72
2023-03-26T04:14:56.173Z,97690.22
2023-03-26T04:17:23.526Z,97694.56
2023-03-26T04:19:52.946Z,97695.44
2023-03-26T04:22:19.876Z,97682.66
2023-03-26T04:24:48.853Z,97696.47
2023-03-26T04:27:20.264Z,97681.50
2023-03-26T04:29:49.830Z,97690.81
2023-03-26T04:32:26.611Z,97692.66
2023-03-26T04:34:53.797Z,97696.19
2023-03-26T04:37:27.540Z,97700.66
2023-03-26T04:39:55.146Z,97693.75
2023-03-26T04:42:21.768Z,97688.84
2023-03-26T04:44:52.327Z,97690.63
2023-03-26T04:47:19.305Z,97685.72
2023-03-26T04:49:47.549Z,97682.44
2023-03-26T04:52:15.040Z,97677.34
2023-03-26T04:54:44.270Z,97686.69
2023-03-26T04:57:21.441Z,97680.72
2023-03-26T04:59:48.013Z,97687.25
2023-03-26T05:02:15.578Z,97691.66
2023-03-26T05:04:43.940Z,97692.53
2023-03-26T05:07:12.945Z,97689.22
2023-03-26T05:09:39.539Z,97674.72
2023-03-26T05:12:06.201Z,97683.31
2023-03-26T05:14:32.699Z,97678.91
2023-03-26T05:17:06.063Z,97684.22
2023-03-26T05:19:32.936Z,97688.59
2023-03-26T05:21:59.594Z,97675.66
2023-03-26T05:24:27.220Z,97676.63
2023-03-26T05:26:56.536Z,97679.06
2023-03-26T05:29:24.222Z,97678.84
2023-03-26T05:31:51.213Z,97673.81
2023-03-26T05:34:17.879Z,97676.22
2023-03-26T05:36:44.426Z,97676.75
2023-03-26T05:39:12.957Z,97679.31
2023-03-26T05:41:39.628Z,97677.53
2023-03-26T05:44:06.211Z,97678.91
2023-03-26T05:46:32.853Z,97671.81
2023-03-26T05:48:59.380Z,97674.25
2023-03-26T05:51:26.026Z,97671.44
2023-03-26T05:53:52.771Z,97677.13
2023-03-26T05:56:19.370Z,97667.13
2023-03-26T05:58:47.558Z,97672.94
2023-03-26T06:01:18.598Z,97671.19
2023-03-26T06:03:46.009Z,97667.00
2023-03-26T06:06:16.268Z,97666.13
2023-03-26T06:08:48.881Z,97669.25
2023-03-26T06:11:29.766Z,97673.44
2023-03-26T06:13:56.467Z,97674.34
2023-03-26T06:16:27.311Z,97681.22
2023-03-26T06:18:56.333Z,97680.16
2023-03-26T06:21:25.129Z,97679.13
2023-03-26T06:23:51.956Z,97687.66
2023-03-26T06:26:23.443Z,97687.28
2023-03-26T06:28:50.008Z,97682.78
2023-03-26T06:31:17.426Z,97684.38
2023-03-26T06:33:44.136Z,97682.38
2023-03-26T06:36:10.899Z,97693.31
2023-03-26T06:38:37.598Z,97695.16
2023-03-26T06:41:06.295Z,97689.09
2023-03-26T06:43:34.024Z,97688.13
2023-03-26T06:46:04.147Z,97691.50
2023-03-26T06:48:31.312Z,97700.78
2023-03-26T06:50:58.160Z,97691.28
2023-03-26T06:53:24.791Z,97691.22
2023-03-26T06:55:53.851Z,97703.13
2023-03-26T06:58:20.995Z,97701.38
2023-03-26T07:00:47.649Z,97702.88
2023-03-26T07:03:14.279Z,97702.56
2023-03-26T07:05:41.245Z,97703.09
2023-03-26T07:08:07.904Z,97704.75
2023-03-26T07:10:34.534Z,97701.44
2023-03-26T07:13:01.105Z,97708.25
2023-03-26T07:15:28.711Z,97698.50
2023-03-26T07:17:55.641Z,97700.03
2023-03-26T07:20:22.316Z,97694.56
2023-03-26T07:22:49.827Z,97693.72
2023-03-26T07:25:17.848Z,97698.63
2023-03-26T07:27:56.211Z,97697.41
2023-03-26T07:30:42.194Z,97692.88
2023-03-26T07:33:18.148Z,97690.72
2023-03-26T07:35:57.089Z,97684.44
2023-03-26T07:38:51.504Z,97684.34
2023-03-26T07:41:23.893Z,97674.53
2023-03-26T07:44:24.437Z,97676.09
2023-03-26T07:46:53.450Z,97676.59
2023-03-26T07:49:20.667Z,97679.94
2023-03-26T07:51:48.914Z,97678.38
2023-03-26T07:54:15.899Z,97673.28
2023-03-26T07:57:04.869Z,97674.88
2023-03-26T07:59:52.516Z,97671.88
2023-03-26T08:02:37.015Z,97681.06
2023-03-26T08:05:18.978Z,97666.94
2023-03-26T08:08:16.477Z,97667.72
2023-03-26T08:11:00.166Z,97669.28
2023-03-26T08:14:14.973Z,97671.38
2023-03-26T08:17:15.086Z,97675.63
2023-03-26T08:19:50.216Z,97679.63
2023-03-26T08:22:36.766Z,97672.53
2023-03-26T08:25:03.514Z,97675.44
2023-03-26T08:27:38.231Z,97664.25
2023-03-26T08:30:17.282Z,97668.28
2023-03-26T08:32:56.346Z,97669.75
2023-03-26T08:35:24.258Z,97667.00
2023-03-26T08:37:51.868Z,97673.13
2023-03-26T08:40:43.672Z,97667.00
2023-03-26T08:43:48.973Z,97663.56
2023-03-26T08:46:33.552Z,97663.19
2023-03-26T08:49:14.020Z,97666.00
2023-03-26T08:51:46.631Z,97657.06
2023-03-26T08:54:37.350Z,97653.44
2023-03-26T08:57:27.958Z,97652.81
2023-03-26T08:59:54.507Z,97648.78
2023-03-26T09:02:38.863Z,97648.78
2023-03-26T09:05:20.784Z,97643.00
2023-03-26T09:08:16.697Z,97650.16
2023-03-26T09:10:52.316Z,97642.38
2023-03-26T09:13:24.672Z,97636.97
2023-03-26T09:16:15.660Z,97644.13
2023-03-26T09:19:16.895Z,97636.97
2023-03-26T09:22:07.315Z,97630.63
2023-03-26T09:24:52.690Z,97628.22
2023-03-26T09:27:35.888Z,97638.66
2023-03-26T09:30:31.621Z,97634.31
2023-03-26T09:33:05.581Z,97625.22
2023-03-26T09:35:53.796Z,97616.53
2023-03-26T09:38:39.031Z,97625.56
2023-03-26T09:41:17.451Z,97616.34
2023-03-26T09:43:59.086Z,97618.78
2023-03-26T09:46:47.572Z,97615.31
2023-03-26T09:49:49.546Z,97605.84
2023-03-26T09:52:50.396Z,97603.38
2023-03-26T09:55:38.633Z,97600.44
2023-03-26T09:58:23.731Z,97594.50
2023-03-26T10:01:06.747Z,97603.66
2023-03-26T10:04:33.278Z,97595.19
2023-03-26T10:07:05.690Z,97588.81
2023-03-26T10:09:38.130Z,97585.94
2023-03-26T10:12:13.503Z,97573.22
2023-03-26T10:14:54.891Z,97579.56
2023-03-26T10:17:52.536Z,97567.63
2023-03-26T10:20:25.182Z,97565.88
2023-03-26T10:23:16.917Z,97559.66
2023-03-26T10:25:51.063Z,97559.47
2023-03-26T10:28:49.284Z,97550.56
2023-03-26T10:31:37.144Z,97540.25
2023-03-26T10:34:29.119Z,97540.72
2023-03-26T10:37:36.679Z,97538.31
2023-03-26T10:40:10.208Z,97536.34
2023-03-26T10:43:09.005Z,97538.69
2023-03-26T10:46:25.421Z,97535.69
2023-03-26T10:49:28.355Z,97532.53
2023-03-26T10:52:08.972Z,97520.97
2023-03-26T10:54:35.573Z,97524.47
2023-03-26T10:57:11.265Z,97525.69
2023-03-26T10:59:37.911Z,97517.78
2023-03-26T11:02:30.058Z,97505.44
2023-03-26T11:05:24.890Z,97501.59
2023-03-26T11:08:07.698Z,97504.00
2023-03-26T11:10:48.563Z,97498.81
2023-03-26T11:13:34.109Z,97493.41
2023-03-26T11:16:09.775Z,97486.31
2023-03-26T11:18:59.498Z,97473.22
2023-03-26T11:21:47.857Z,97473.75
2023-03-26T11:24:35.125Z,97469.63
2023-03-26T11:27:14.484Z,97470.97
2023-03-26T11:29:55.500Z,97455.69
2023-03-26T11:32:34.411Z,97460.38
2023-03-26T11:35:08.326Z,97449.22
2023-03-26T11:37:41.596Z,97447.34
2023-03-26T11:40:23.747Z,97439.13
2023-03-26T11:42:56.008Z,97442.25
2023-03-26T11:45:27.323Z,97440.16
2023-03-26T11:48:08.201Z,97432.88
2023-03-26T11:50:41.157Z,97431.81
2023-03-26T11:53:17.780Z,97436.19
2023-03-26T11:55:57.470Z,97422.66
2023-03-26T11:58:32.351Z,97420.06
2023-03-26T12:00:59.225Z,97416.72
2023-03-26T12:03:30.323Z,97419.09
2023-03-26T12:05:59.950Z,97407.44
2023-03-26T12:08:39.843Z,97402.09
2023-03-26T12:11:10.976Z,97406.66
2023-03-26T12:13:44.206Z,97397.06
2023-03-26T12:16:19.284Z,97382.97
2023-03-26T12:18:57.509Z,97396.97
2023-03-26T12:21:24.063Z,97388.72
2023-03-26T12:23:54.005Z,97377.38
2023-03-26T12:26:36.320Z,97371.72
2023-03-26T12:29:14.270Z,97366.00
2023-03-26T12:32:04.998Z,97360.91
2023-03-26T12:34:35.511Z,97347.75
2023-03-26T12:37:04.048Z,97352.16
2023-03-26T12:40:10.588Z,97348.72
2023-03-26T12:44:44.921Z,97338.47
2023-03-26T12:45:24.314Z,97334.00
2023-03-26T12:47:58.983Z,97337.31
2023-03-26T12:50:42.814Z,97330.00
2023-03-26T12:53:19.280Z,97322.84
2023-03-26T12:55:57.561Z,97317.44
2023-03-26T12:59:05.614Z,97316.16
2023-03-26T13:01:47.297Z,97312.22
2023-03-26T13:04:58.438Z,97321.03
2023-03-26T13:07:56.739Z,97313.25
2023-03-26T13:10:35.148Z,97305.94
2023-03-26T13:13:57.934Z,97308.81
2023-03-26T13:17:15.995Z,97293.63
2023-03-26T13:19:49.538Z,97297.75
2023-03-26T13:22:39.834Z,97293.63
2023-03-26T13:25:31.832Z,97289.41
2023-03-26T13:28:27.196Z,97280.22
2023-03-26T13:31:07.065Z,97284.41
2023-03-26T13:33:45.893Z,97273.41
2023-03-26T13:36:39.708Z,97269.34
2023-03-26T13:39:41.424Z,97270.06
2023-03-26T13:42:33.840Z,97264.69
2023-03-26T13:45:23.189Z,97272.63
2023-03-26T13:47:54.969Z,97269.81
2023-03-26T13:50:31.084Z,97269.31
2023-03-26T13:53:17.000Z,97266.94
2023-03-26T13:55:50.809Z,97260.88
2023-03-26T13:58:24.236Z,97252.13
2023-03-26T14:01:09.527Z,97249.03
2023-03-26T14:04:04.308Z,97251.28
2023-03-26T14:06:42.457Z,97252.25
2023-03-26T14:09:26.004Z,97241.81
2023-03-26T14:11:56.709Z,97237.38
2023-03-26T14:14:57.945Z,97236.31
2023-03-26T14:17:31.041Z,97227.16
2023-03-26T14:20:28.064Z,97225.88
2023-03-26T14:23:16.403Z,97221.88
2023-03-26T14:26:13.545Z,97220.59
2023-03-26T14:29:07.175Z,97217.38
2023-03-26T14:31:42.623Z,97207.91
2023-03-26T14:34:45.351Z,97207.66
2023-03-26T14:37:47.794Z,97196.63
2023-03-26T14:40:31.447Z,97195.19
2023-03-26T14:43:16.336Z,97196.16
2023-03-26T14:45:55.860Z,97189.38
2023-03-26T14:48:55.862Z,97185.22
2023-03-26T14:51:54.468Z,97177.63
2023-03-26T14:54:27.804Z,97169.31
2023-03-26T14:57:27.661Z,97160.06
2023-03-26T15:00:29.205Z,97155.38
2023-03-26T15:03:08.091Z,97155.94
2023-03-26T15:05:53.172Z,97164.09
2023-03-26T15:08:38.785Z,97159.22
2023-03-26T15:11:20.987Z,97153.31
2023-03-26T15:14:24.724Z,97156.13
2023-03-26T15:17:03.858Z,97150.44
2023-03-26T15:19:40.665Z,97143.75
2023-03-26T15:22:48.239Z,97136.19
2023-03-26T15:25:45.393Z,97132.41
2023-03-26T15:28:24.198Z,97114.84
2023-03-26T15:31:16.583Z,97120.78
2023-03-26T15:33:59.010Z,97109.84
2023-03-26T15:36:58.899Z,97117.06
2023-03-26T15:40:12.817Z,97118.94
2023-03-26T15:43:01.538Z,97113.56
2023-03-26T15:45:28.186Z,97116.41
2023-03-26T15:48:09.528Z,97113.06
2023-03-26T15:50:56.260Z,97117.88
2023-03-26T15:53:52.093Z,97102.72
2023-03-26T15:56:43.086Z,97101.03
2023-03-26T16:00:00.486Z,97098.72
2023-03-26T16:02:53.883Z,97095.03
2023-03-26T16:05:33.145Z,97095.44
2023-03-26T16:08:31.443Z,97094.94
2023-03-26T16:10:59.576Z,97100.69
2023-03-26T16:13:26.082Z,97095.91
2023-03-26T16:16:09.687Z,97100.53
2023-03-26T16:18:42.143Z,97101.66
2023-03-26T16:21:53.355Z,97108.50
2023-03-26T16:24:24.403Z,97096.47
2023-03-26T16:27:02.764Z,97090.53
2023-03-26T16:29:30.530Z,97079.56
2023-03-26T16:32:35.550Z,97074.47
2023-03-26T16:35:21.831Z,97082.94
2023-03-26T16:38:05.862Z,97103.97
2023-03-26T16:40:34.366Z,97120.19
2023-03-26T16:43:18.815Z,97135.50
2023-03-26T16:46:17.940Z,97119.69
2023-03-26T16:48:59.552Z,97135.78
2023-03-26T16:51:50.874Z,97128.28
2023-03-26T16:54:48.987Z,97116.19
2023-03-26T16:57:27.153Z,97110.03
2023-03-26T17:00:35.598Z,97116.03
2023-03-26T17:03:18.141Z,97114.19
2023-03-26T17:05:47.830Z,97099.94
2023-03-26T17:08:58.411Z,97101.25
2023-03-26T17:11:36.309Z,97086.50
2023-03-26T17:14:24.594Z,97082.81
2023-03-26T17:17:25.252Z,97079.47
2023-03-26T17:20:04.072Z,97074.59
2023-03-26T17:22:46.227Z,97083.69
2023-03-26T17:25:24.426Z,97072.88
2023-03-26T17:27:50.975Z,97072.16
2023-03-26T17:30:34.699Z,97061.97
2023-03-26T17:33:06.083Z,97061.22
2023-03-26T17:35:45.593Z,97066.69
2023-03-26T17:38:18.385Z,97056.97
2023-03-26T17:40:56.849Z,97050.47
2023-03-26T17:43:46.539Z,97055.94
2023-03-26T17:46:29.489Z,97041.56
2023-03-26T17:49:11.441Z,97043.88
2023-03-26T17:51:47.483Z,97045.56
2023-03-26T17:54:22.272Z,97053.69
2023-03-26T17:56:49.690Z,97048.16
2023-03-26T17:59:25.802Z,97039.53
2023-03-26T18:01:57.572Z,97030.25
2023-03-26T18:04:31.983Z,97025.28
2023-03-26T18:07:44.087Z,97029.00
2023-03-26T18:10:13.501Z,97033.50
2023-03-26T18:13:04.324Z,97030.84
2023-03-26T18:15:52.594Z,97029.53
2023-03-26T18:18:34.561Z,97028.78
2023-03-26T18:21:04.570Z,97022.88
2023-03-26T18:23:41.206Z,97018.69
2023-03-26T18:26:15.993Z,97024.72
2023-03-26T18:28:44.973Z,97027.59
2023-03-26T18:31:22.729Z,97018.22
2023-03-26T18:33:50.836Z,97002.03
2023-03-26T18:36:25.972Z,97006.38
2023-03-26T18:38:57.953Z,97001.19
2023-03-26T18:41:31.260Z,96994.91
2023-03-26T18:44:03.429Z,97004.19
2023-03-26T18:46:30.361Z,97000.28
2023-03-26T18:48:58.811Z,97002.97
2023-03-26T18:51:26.733Z,97006.41
2023-03-26T18:53:59.336Z,97014.06
2023-03-26T18:56:38.695Z,97043.03
2023-03-26T18:59:21.646Z,97075.47
2023-03-26T19:01:49.048Z,97085.34
2023-03-26T19:04:16.453Z,97088.09
2023-03-26T19:06:44.115Z,97080.38
2023-03-26T19:09:24.257Z,97069.72
2023-03-26T19:12:03.895Z,97053.41
2023-03-26T19:14:35.345Z,97051.22
2023-03-26T19:17:05.276Z,97046.97
2023-03-26T19:19:37.353Z,97032.84
2023-03-26T19:22:11.464Z,97031.47
2023-03-26T19:24:40.417Z,97029.69
2023-03-26T19:27:07.374Z,97023.81
2023-03-26T19:29:36.232Z,97023.91
2023-03-26T19:32:21.197Z,97016.84
2023-03-26T19:34:48.570Z,97014.94
2023-03-26T19:37:25.323Z,97014.75
2023-03-26T19:40:14.325Z,97012.34
2023-03-26T19:42:44.801Z,97003.91
2023-03-26T19:45:19.297Z,96990.91
2023-03-26T19:47:50.425Z,96981.47
2023-03-26T19:50:27.159Z,96967.06
2023-03-26T19:53:19.009Z,96955.28
2023-03-26T19:56:04.473Z,96953.38
2023-03-26T19:58:35.729Z,96933.06
2023-03-26T20:01:06.512Z,96927.13
2023-03-26T20:03:43.652Z,96923.22
2023-03-26T20:06:16.133Z,96918.22
2023-03-26T20:08:43.079Z,96904.41
2023-03-26T20:11:16.592Z,96913.44
2023-03-26T20:13:43.274Z,96911.31
2023-03-26T20:16:27.209Z,96903.69
2023-03-26T20:18:57.273Z,96906.28
2023-03-26T20:21:27.073Z,96915.72
2023-03-26T20:23:54.821Z,96914.38
2023-03-26T20:26:23.572Z,96905.16
2023-03-26T20:28:53.563Z,96904.97
2023-03-26T20:31:23.351Z,96911.88
2023-03-26T20:33:51.816Z,96915.13
2023-03-26T20:36:34.147Z,96921.06
2023-03-26T20:39:06.201Z,96915.06
2023-03-26T20:41:34.199Z,96921.63
2023-03-26T20:44:01.070Z,96910.72
2023-03-26T20:46:30.600Z,96921.88
2023-03-26T20:48:59.832Z,96918.56
2023-03-26T20:51:28.497Z,96915.06
2023-03-26T20:53:56.093Z,96910.53
2023-03-26T20:56:22.728Z,96906.94
2023-03-26T20:58:54.772Z,96897.53
2023-03-26T21:01:27.862Z,96905.69
2023-03-26T21:03:54.548Z,96884.16
2023-03-26T21:06:21.058Z,96892.00
2023-03-26T21:08:47.805Z,96886.19
2023-03-26T21:11:27.269Z,96892.19
2023-03-26T21:14:01.987Z,96894.03
2023-03-26T21:16:28.853Z,96911.53
2023-03-26T21:18:56.604Z,96913.72
2023-03-26T21:21:42.789Z,96908.72
2023-03-26T21:24:40.987Z,96902.03
2023-03-26T21:27:31.024Z,96900.53
2023-03-26T21:29:59.724Z,96885.03
2023-03-26T21:32:26.758Z,96884.69
2023-03-26T21:34:59.144Z,96888.38
2023-03-26T21:37:26.877Z,96881.19
2023-03-26T21:39:55.724Z,96873.22
2023-03-26T21:42:27.168Z,96860.19
2023-03-26T21:44:53.927Z,96865.53
2023-03-26T21:47:20.694Z,96857.88
2023-03-26T21:49:47.542Z,96859.69
2023-03-26T21:52:15.400Z,96864.19
2023-03-26T21:54:45.237Z,96860.03
2023-03-26T21:57:35.788Z,96850.59
2023-03-26T22:03:27.730Z,96852.09
2023-03-26T22:06:21.922Z,96847.94
2023-03-26T22:08:49.795Z,96848.84
2023-03-26T22:11:16.319Z,96853.19
2023-03-26T22:13:43.715Z,96852.28
2023-03-26T22:16:10.787Z,96839.19
2023-03-26T22:18:37.647Z,96838.44
2023-03-26T22:21:04.768Z,96832.25
2023-03-26T22:23:35.452Z,96825.44
2023-03-26T22:26:03.279Z,96821.19
2023-03-26T22:28:30.472Z,96813.53
2023-03-26T22:30:59.660Z,96815.19
2023-03-26T22:33:26.703Z,96808.19
2023-03-26T22:35:55.538Z,96810.00
2023-03-26T22:38:24.960Z,96810.94
2023-03-26T22:40:59.540Z,96808.50
2023-03-26T22:43:28.583Z,96805.03
2023-03-26T22:45:55.566Z,96805.34
2023-03-26T22:48:23.704Z,96803.34
2023-03-26T22:51:08.185Z,96795.69
2023-03-26T22:53:37.988Z,96799.28
2023-03-26T22:56:04.909Z,96800.38
2023-03-26T22:58:33.589Z,96799.63
2023-03-26T23:01:10.618Z,96806.56
2023-03-26T23:03:37.493Z,96804.16
2023-03-26T23:06:07.673Z,96805.47
2023-03-26T23:08:37.461Z,96814.88
2023-03-26T23:11:13.753Z,96812.31
2023-03-26T23:13:41.643Z,96813.72
2023-03-26T23:16:11.368Z,96825.88
2023-03-26T23:18:38.723Z,96830.13
2023-03-26T23:21:12.059Z,96823.38
2023-03-26T23:23:41.482Z,96825.97
2023-03-26T23:26:08.350Z,96830.22
2023-03-26T23:28:35.653Z,96832.78
2023-03-26T23:31:05.183Z,96832.97
2023-03-26T23:33:35.484Z,96830.38
2023-03-26T23:36:09.052Z,96821.06
2023-03-26T23:38:43.399Z,96825.41
2023-03-26T23:41:15.294Z,96821.88
2023-03-26T23:43:53.343Z,96823.75
2023-03-26T23:46:26.042Z,96821.16
2023-03-26T23:48:53.103Z,96813.41
2023-03-26T23:51:21.042Z,96805.75
2023-03-26T23:53:49.237Z,96805.75
2023-03-26T23:56:16.319Z,96801.41
2023-03-26T23:58:43.032Z,96793.72
